sensor_id;sensor_type;location;lat;lon;timestamp;P1;durP1;ratioP1;P2;durP2;ratioP2
73456;SDS011;61691;53.072;6.582;2023-04-03T00:00:50;4.47;;;1.48;;
73456;SDS011;61691;53.072;6.582;2023-04-03T00:03:17;8.75;;;1.77;;
73456;SDS011;61691;53.072;6.582;2023-04-03T00:05:45;6.00;;;1.52;;
73456;SDS011;61691;53.072;6.582;2023-04-03T00:08:12;4.88;;;1.67;;
73456;SDS011;61691;53.072;6.582;2023-04-03T00:10:39;4.78;;;1.55;;
73456;SDS011;61691;53.072;6.582;2023-04-03T00:13:07;8.85;;;2.00;;
73456;SDS011;61691;53.072;6.582;2023-04-03T00:15:34;8.23;;;1.77;;
73456;SDS011;61691;53.072;6.582;2023-04-03T00:18:02;7.13;;;1.60;;
73456;SDS011;61691;53.072;6.582;2023-04-03T00:20:29;4.53;;;1.50;;
73456;SDS011;61691;53.072;6.582;2023-04-03T00:22:57;5.35;;;1.75;;
73456;SDS011;61691;53.072;6.582;2023-04-03T00:25:24;11.07;;;1.90;;
73456;SDS011;61691;53.072;6.582;2023-04-03T00:27:51;6.00;;;1.75;;
73456;SDS011;61691;53.072;6.582;2023-04-03T00:30:18;4.53;;;1.45;;
73456;SDS011;61691;53.072;6.582;2023-04-03T00:32:47;4.93;;;1.50;;
73456;SDS011;61691;53.072;6.582;2023-04-03T00:35:15;6.78;;;1.50;;
73456;SDS011;61691;53.072;6.582;2023-04-03T00:37:42;8.02;;;1.70;;
73456;SDS011;61691;53.072;6.582;2023-04-03T00:40:10;9.80;;;1.80;;
73456;SDS011;61691;53.072;6.582;2023-04-03T00:42:43;8.15;;;1.83;;
73456;SDS011;61691;53.072;6.582;2023-04-03T00:47:38;5.50;;;1.48;;
73456;SDS011;61691;53.072;6.582;2023-04-03T00:50:06;5.72;;;1.60;;
73456;SDS011;61691;53.072;6.582;2023-04-03T00:52:34;7.63;;;1.55;;
73456;SDS011;61691;53.072;6.582;2023-04-03T00:55:02;4.68;;;1.60;;
73456;SDS011;61691;53.072;6.582;2023-04-03T00:57:32;7.53;;;1.80;;
73456;SDS011;61691;53.072;6.582;2023-04-03T01:00:00;9.57;;;1.80;;
73456;SDS011;61691;53.072;6.582;2023-04-03T01:02:33;8.13;;;1.73;;
73456;SDS011;61691;53.072;6.582;2023-04-03T01:05:00;7.68;;;1.73;;
73456;SDS011;61691;53.072;6.582;2023-04-03T01:07:27;8.23;;;1.98;;
73456;SDS011;61691;53.072;6.582;2023-04-03T01:09:58;7.22;;;1.70;;
73456;SDS011;61691;53.072;6.582;2023-04-03T01:12:27;5.88;;;1.77;;
73456;SDS011;61691;53.072;6.582;2023-04-03T01:15:14;11.13;;;2.17;;
73456;SDS011;61691;53.072;6.582;2023-04-03T01:17:50;6.47;;;1.80;;
73456;SDS011;61691;53.072;6.582;2023-04-03T01:25:44;8.70;;;1.88;;
73456;SDS011;61691;53.072;6.582;2023-04-03T01:28:20;7.90;;;1.85;;
73456;SDS011;61691;53.072;6.582;2023-04-03T01:33:56;7.75;;;2.13;;
73456;SDS011;61691;53.072;6.582;2023-04-03T01:36:25;10.75;;;2.00;;
73456;SDS011;61691;53.072;6.582;2023-04-03T01:38:56;8.70;;;1.80;;
73456;SDS011;61691;53.072;6.582;2023-04-03T01:41:24;11.05;;;1.90;;
73456;SDS011;61691;53.072;6.582;2023-04-03T01:43:51;13.27;;;2.47;;
73456;SDS011;61691;53.072;6.582;2023-04-03T01:46:18;11.05;;;1.80;;
73456;SDS011;61691;53.072;6.582;2023-04-03T01:48:46;11.23;;;2.08;;
73456;SDS011;61691;53.072;6.582;2023-04-03T01:51:14;10.40;;;1.90;;
73456;SDS011;61691;53.072;6.582;2023-04-03T01:53:41;12.23;;;1.90;;
73456;SDS011;61691;53.072;6.582;2023-04-03T01:56:08;11.30;;;1.98;;
73456;SDS011;61691;53.072;6.582;2023-04-03T01:58:34;13.95;;;2.45;;
73456;SDS011;61691;53.072;6.582;2023-04-03T02:01:02;9.75;;;2.13;;
73456;SDS011;61691;53.072;6.582;2023-04-03T02:03:29;8.85;;;2.08;;
73456;SDS011;61691;53.072;6.582;2023-04-03T02:05:56;13.32;;;2.15;;
73456;SDS011;61691;53.072;6.582;2023-04-03T02:08:23;10.10;;;2.25;;
73456;SDS011;61691;53.072;6.582;2023-04-03T02:10:50;7.78;;;1.90;;
73456;SDS011;61691;53.072;6.582;2023-04-03T02:13:17;10.88;;;2.92;;
73456;SDS011;61691;53.072;6.582;2023-04-03T02:15:44;10.23;;;1.90;;
73456;SDS011;61691;53.072;6.582;2023-04-03T02:18:11;12.55;;;2.20;;
73456;SDS011;61691;53.072;6.582;2023-04-03T02:20:38;10.02;;;2.35;;
73456;SDS011;61691;53.072;6.582;2023-04-03T02:23:05;11.52;;;2.13;;
73456;SDS011;61691;53.072;6.582;2023-04-03T02:25:32;13.00;;;2.63;;
73456;SDS011;61691;53.072;6.582;2023-04-03T02:28:01;8.95;;;1.90;;
73456;SDS011;61691;53.072;6.582;2023-04-03T02:30:28;13.30;;;2.00;;
73456;SDS011;61691;53.072;6.582;2023-04-03T02:32:55;11.07;;;2.33;;
73456;SDS011;61691;53.072;6.582;2023-04-03T02:35:22;8.38;;;1.90;;
73456;SDS011;61691;53.072;6.582;2023-04-03T02:37:49;10.98;;;2.05;;
73456;SDS011;61691;53.072;6.582;2023-04-03T02:40:15;12.30;;;2.15;;
73456;SDS011;61691;53.072;6.582;2023-04-03T02:42:42;11.52;;;2.80;;
73456;SDS011;61691;53.072;6.582;2023-04-03T02:45:09;9.88;;;2.30;;
73456;SDS011;61691;53.072;6.582;2023-04-03T02:47:36;12.13;;;2.10;;
73456;SDS011;61691;53.072;6.582;2023-04-03T02:50:03;9.63;;;2.22;;
73456;SDS011;61691;53.072;6.582;2023-04-03T02:52:30;13.05;;;2.78;;
73456;SDS011;61691;53.072;6.582;2023-04-03T02:54:56;14.60;;;2.35;;
73456;SDS011;61691;53.072;6.582;2023-04-03T02:57:23;14.52;;;3.00;;
73456;SDS011;61691;53.072;6.582;2023-04-03T02:59:50;12.60;;;2.45;;
73456;SDS011;61691;53.072;6.582;2023-04-03T03:02:17;11.98;;;2.42;;
73456;SDS011;61691;53.072;6.582;2023-04-03T03:04:43;10.80;;;2.15;;
73456;SDS011;61691;53.072;6.582;2023-04-03T03:07:10;13.40;;;2.58;;
73456;SDS011;61691;53.072;6.582;2023-04-03T03:09:36;8.77;;;2.13;;
73456;SDS011;61691;53.072;6.582;2023-04-03T03:12:03;11.18;;;2.60;;
73456;SDS011;61691;53.072;6.582;2023-04-03T03:14:30;13.18;;;2.47;;
73456;SDS011;61691;53.072;6.582;2023-04-03T03:16:57;10.15;;;2.17;;
73456;SDS011;61691;53.072;6.582;2023-04-03T03:19:23;10.55;;;2.50;;
73456;SDS011;61691;53.072;6.582;2023-04-03T03:21:50;14.32;;;2.40;;
73456;SDS011;61691;53.072;6.582;2023-04-03T03:24:18;8.82;;;2.13;;
73456;SDS011;61691;53.072;6.582;2023-04-03T03:26:45;10.07;;;2.25;;
73456;SDS011;61691;53.072;6.582;2023-04-03T03:29:11;9.40;;;2.40;;
73456;SDS011;61691;53.072;6.582;2023-04-03T03:31:38;12.63;;;2.28;;
73456;SDS011;61691;53.072;6.582;2023-04-03T03:34:05;9.00;;;2.55;;
73456;SDS011;61691;53.072;6.582;2023-04-03T03:36:31;14.50;;;2.20;;
73456;SDS011;61691;53.072;6.582;2023-04-03T03:38:58;11.65;;;2.90;;
73456;SDS011;61691;53.072;6.582;2023-04-03T03:41:25;10.88;;;2.10;;
73456;SDS011;61691;53.072;6.582;2023-04-03T03:43:52;16.02;;;2.85;;
73456;SDS011;61691;53.072;6.582;2023-04-03T03:46:19;10.38;;;2.20;;
73456;SDS011;61691;53.072;6.582;2023-04-03T03:48:45;13.43;;;2.70;;
73456;SDS011;61691;53.072;6.582;2023-04-03T03:51:12;11.35;;;2.30;;
73456;SDS011;61691;53.072;6.582;2023-04-03T03:53:38;12.65;;;2.58;;
73456;SDS011;61691;53.072;6.582;2023-04-03T03:56:05;12.55;;;2.50;;
73456;SDS011;61691;53.072;6.582;2023-04-03T03:58:32;15.02;;;2.50;;
73456;SDS011;61691;53.072;6.582;2023-04-03T04:01:03;11.05;;;2.40;;
73456;SDS011;61691;53.072;6.582;2023-04-03T04:03:32;14.52;;;3.00;;
73456;SDS011;61691;53.072;6.582;2023-04-03T04:05:59;11.65;;;2.25;;
73456;SDS011;61691;53.072;6.582;2023-04-03T04:08:26;10.55;;;2.38;;
73456;SDS011;61691;53.072;6.582;2023-04-03T04:10:53;14.75;;;2.80;;
73456;SDS011;61691;53.072;6.582;2023-04-03T04:13:20;15.73;;;2.70;;
73456;SDS011;61691;53.072;6.582;2023-04-03T04:15:47;14.60;;;4.18;;
73456;SDS011;61691;53.072;6.582;2023-04-03T04:18:14;16.88;;;2.75;;
73456;SDS011;61691;53.072;6.582;2023-04-03T04:20:41;14.65;;;3.25;;
73456;SDS011;61691;53.072;6.582;2023-04-03T04:23:07;13.90;;;2.55;;
73456;SDS011;61691;53.072;6.582;2023-04-03T04:25:34;11.90;;;2.75;;
73456;SDS011;61691;53.072;6.582;2023-04-03T04:28:01;13.13;;;3.03;;
73456;SDS011;61691;53.072;6.582;2023-04-03T04:30:28;13.02;;;2.45;;
73456;SDS011;61691;53.072;6.582;2023-04-03T04:32:54;14.25;;;2.80;;
73456;SDS011;61691;53.072;6.582;2023-04-03T04:35:21;13.18;;;2.60;;
73456;SDS011;61691;53.072;6.582;2023-04-03T04:37:48;14.52;;;2.53;;
73456;SDS011;61691;53.072;6.582;2023-04-03T04:40:15;11.57;;;2.50;;
73456;SDS011;61691;53.072;6.582;2023-04-03T04:42:41;12.48;;;2.67;;
73456;SDS011;61691;53.072;6.582;2023-04-03T04:45:08;13.60;;;2.88;;
73456;SDS011;61691;53.072;6.582;2023-04-03T04:47:35;11.73;;;2.72;;
73456;SDS011;61691;53.072;6.582;2023-04-03T04:50:02;14.68;;;2.75;;
73456;SDS011;61691;53.072;6.582;2023-04-03T04:52:29;13.38;;;2.40;;
73456;SDS011;61691;53.072;6.582;2023-04-03T04:54:56;12.77;;;2.85;;
73456;SDS011;61691;53.072;6.582;2023-04-03T04:57:22;12.30;;;2.95;;
73456;SDS011;61691;53.072;6.582;2023-04-03T04:59:49;16.30;;;3.03;;
73456;SDS011;61691;53.072;6.582;2023-04-03T05:02:16;16.10;;;2.95;;
73456;SDS011;61691;53.072;6.582;2023-04-03T05:04:43;13.00;;;2.47;;
73456;SDS011;61691;53.072;6.582;2023-04-03T05:07:10;12.80;;;2.60;;
73456;SDS011;61691;53.072;6.582;2023-04-03T05:09:37;16.60;;;2.95;;
73456;SDS011;61691;53.072;6.582;2023-04-03T05:12:03;15.00;;;2.83;;
73456;SDS011;61691;53.072;6.582;2023-04-03T05:14:31;16.13;;;2.92;;
73456;SDS011;61691;53.072;6.582;2023-04-03T05:16:57;12.43;;;2.60;;
73456;SDS011;61691;53.072;6.582;2023-04-03T05:19:24;16.58;;;2.90;;
73456;SDS011;61691;53.072;6.582;2023-04-03T05:21:51;13.13;;;2.55;;
73456;SDS011;61691;53.072;6.582;2023-04-03T05:24:18;17.80;;;3.15;;
73456;SDS011;61691;53.072;6.582;2023-04-03T05:26:44;14.55;;;3.00;;
73456;SDS011;61691;53.072;6.582;2023-04-03T05:29:12;14.15;;;3.10;;
73456;SDS011;61691;53.072;6.582;2023-04-03T05:31:38;16.38;;;3.03;;
73456;SDS011;61691;53.072;6.582;2023-04-03T05:34:05;14.80;;;3.90;;
73456;SDS011;61691;53.072;6.582;2023-04-03T05:36:32;15.73;;;2.90;;
73456;SDS011;61691;53.072;6.582;2023-04-03T05:38:59;14.68;;;3.17;;
73456;SDS011;61691;53.072;6.582;2023-04-03T05:41:25;17.40;;;3.50;;
73456;SDS011;61691;53.072;6.582;2023-04-03T05:43:52;16.33;;;3.00;;
73456;SDS011;61691;53.072;6.582;2023-04-03T05:46:19;14.65;;;3.42;;
73456;SDS011;61691;53.072;6.582;2023-04-03T05:48:47;15.13;;;3.00;;
73456;SDS011;61691;53.072;6.582;2023-04-03T05:51:15;16.38;;;3.08;;
73456;SDS011;61691;53.072;6.582;2023-04-03T05:53:44;14.50;;;3.28;;
73456;SDS011;61691;53.072;6.582;2023-04-03T05:56:13;16.45;;;3.30;;
73456;SDS011;61691;53.072;6.582;2023-04-03T05:58:40;17.00;;;3.42;;
73456;SDS011;61691;53.072;6.582;2023-04-03T06:01:07;14.02;;;3.30;;
73456;SDS011;61691;53.072;6.582;2023-04-03T06:03:34;14.13;;;2.90;;
73456;SDS011;61691;53.072;6.582;2023-04-03T06:08:31;15.20;;;4.20;;
73456;SDS011;61691;53.072;6.582;2023-04-03T06:10:59;15.68;;;3.30;;
73456;SDS011;61691;53.072;6.582;2023-04-03T06:13:26;14.07;;;3.10;;
73456;SDS011;61691;53.072;6.582;2023-04-03T06:15:52;16.05;;;3.70;;
73456;SDS011;61691;53.072;6.582;2023-04-03T06:18:19;15.18;;;3.70;;
73456;SDS011;61691;53.072;6.582;2023-04-03T06:20:46;14.75;;;3.13;;
73456;SDS011;61691;53.072;6.582;2023-04-03T06:23:13;15.88;;;3.97;;
73456;SDS011;61691;53.072;6.582;2023-04-03T06:25:40;15.90;;;3.00;;
73456;SDS011;61691;53.072;6.582;2023-04-03T06:28:07;15.68;;;3.58;;
73456;SDS011;61691;53.072;6.582;2023-04-03T06:30:36;19.02;;;3.22;;
73456;SDS011;61691;53.072;6.582;2023-04-03T06:33:04;16.00;;;3.33;;
73456;SDS011;61691;53.072;6.582;2023-04-03T06:35:31;14.45;;;3.05;;
73456;SDS011;61691;53.072;6.582;2023-04-03T06:37:57;13.68;;;3.10;;
73456;SDS011;61691;53.072;6.582;2023-04-03T06:40:24;15.02;;;3.22;;
73456;SDS011;61691;53.072;6.582;2023-04-03T06:42:52;17.23;;;3.42;;
73456;SDS011;61691;53.072;6.582;2023-04-03T06:45:19;13.00;;;3.20;;
73456;SDS011;61691;53.072;6.582;2023-04-03T06:47:46;15.40;;;3.00;;
73456;SDS011;61691;53.072;6.582;2023-04-03T06:50:13;14.70;;;4.03;;
73456;SDS011;61691;53.072;6.582;2023-04-03T06:52:41;17.35;;;3.10;;
73456;SDS011;61691;53.072;6.582;2023-04-03T06:55:08;19.02;;;3.00;;
73456;SDS011;61691;53.072;6.582;2023-04-03T06:57:36;14.43;;;3.13;;
73456;SDS011;61691;53.072;6.582;2023-04-03T07:00:04;18.38;;;3.53;;
73456;SDS011;61691;53.072;6.582;2023-04-03T07:02:31;12.93;;;3.03;;
73456;SDS011;61691;53.072;6.582;2023-04-03T07:04:59;18.63;;;3.03;;
73456;SDS011;61691;53.072;6.582;2023-04-03T07:07:26;16.88;;;4.07;;
73456;SDS011;61691;53.072;6.582;2023-04-03T07:09:52;12.98;;;2.80;;
73456;SDS011;61691;53.072;6.582;2023-04-03T07:12:19;14.20;;;2.80;;
73456;SDS011;61691;53.072;6.582;2023-04-03T07:14:46;13.32;;;2.92;;
73456;SDS011;61691;53.072;6.582;2023-04-03T07:17:13;14.02;;;2.75;;
73456;SDS011;61691;53.072;6.582;2023-04-03T07:19:40;12.32;;;2.47;;
73456;SDS011;61691;53.072;6.582;2023-04-03T07:22:07;12.98;;;2.58;;
73456;SDS011;61691;53.072;6.582;2023-04-03T07:24:33;13.60;;;2.72;;
73456;SDS011;61691;53.072;6.582;2023-04-03T07:27:01;12.25;;;2.70;;
73456;SDS011;61691;53.072;6.582;2023-04-03T07:29:28;12.40;;;2.50;;
73456;SDS011;61691;53.072;6.582;2023-04-03T07:31:56;13.07;;;2.40;;
73456;SDS011;61691;53.072;6.582;2023-04-03T07:34:23;14.07;;;2.50;;
73456;SDS011;61691;53.072;6.582;2023-04-03T07:36:50;14.13;;;2.78;;
73456;SDS011;61691;53.072;6.582;2023-04-03T07:39:17;12.13;;;2.67;;
73456;SDS011;61691;53.072;6.582;2023-04-03T07:41:44;14.20;;;2.72;;
73456;SDS011;61691;53.072;6.582;2023-04-03T07:44:10;18.30;;;3.13;;
73456;SDS011;61691;53.072;6.582;2023-04-03T07:46:37;15.30;;;2.80;;
73456;SDS011;61691;53.072;6.582;2023-04-03T07:49:04;12.32;;;2.63;;
73456;SDS011;61691;53.072;6.582;2023-04-03T07:51:31;13.23;;;2.47;;
73456;SDS011;61691;53.072;6.582;2023-04-03T07:53:58;13.57;;;2.90;;
73456;SDS011;61691;53.072;6.582;2023-04-03T07:56:25;13.27;;;2.60;;
73456;SDS011;61691;53.072;6.582;2023-04-03T07:58:51;12.48;;;2.50;;
73456;SDS011;61691;53.072;6.582;2023-04-03T08:01:18;14.38;;;2.88;;
73456;SDS011;61691;53.072;6.582;2023-04-03T08:03:45;12.07;;;2.50;;
73456;SDS011;61691;53.072;6.582;2023-04-03T08:06:12;13.88;;;2.95;;
73456;SDS011;61691;53.072;6.582;2023-04-03T08:08:43;13.40;;;2.47;;
73456;SDS011;61691;53.072;6.582;2023-04-03T08:11:11;11.02;;;2.67;;
73456;SDS011;61691;53.072;6.582;2023-04-03T08:13:38;13.15;;;2.70;;
73456;SDS011;61691;53.072;6.582;2023-04-03T08:16:16;10.45;;;2.63;;
73456;SDS011;61691;53.072;6.582;2023-04-03T08:18:46;12.25;;;2.30;;
73456;SDS011;61691;53.072;6.582;2023-04-03T08:21:14;15.35;;;2.92;;
73456;SDS011;61691;53.072;6.582;2023-04-03T08:23:41;11.27;;;2.10;;
73456;SDS011;61691;53.072;6.582;2023-04-03T08:26:15;13.85;;;2.72;;
73456;SDS011;61691;53.072;6.582;2023-04-03T08:28:43;13.45;;;2.38;;
73456;SDS011;61691;53.072;6.582;2023-04-03T08:31:11;12.48;;;2.30;;
73456;SDS011;61691;53.072;6.582;2023-04-03T08:36:14;12.73;;;2.40;;
73456;SDS011;61691;53.072;6.582;2023-04-03T08:38:43;12.35;;;2.50;;
73456;SDS011;61691;53.072;6.582;2023-04-03T08:41:13;13.73;;;2.58;;
73456;SDS011;61691;53.072;6.582;2023-04-03T08:43:55;12.60;;;2.15;;
73456;SDS011;61691;53.072;6.582;2023-04-03T08:46:37;10.13;;;2.00;;
73456;SDS011;61691;53.072;6.582;2023-04-03T08:49:16;11.38;;;2.30;;
73456;SDS011;61691;53.072;6.582;2023-04-03T08:51:51;14.75;;;2.30;;
73456;SDS011;61691;53.072;6.582;2023-04-03T08:54:22;11.63;;;2.38;;
73456;SDS011;61691;53.072;6.582;2023-04-03T08:56:59;10.40;;;2.40;;
73456;SDS011;61691;53.072;6.582;2023-04-03T09:01:59;10.02;;;1.98;;
73456;SDS011;61691;53.072;6.582;2023-04-03T09:04:32;11.93;;;1.98;;
73456;SDS011;61691;53.072;6.582;2023-04-03T09:07:05;9.63;;;2.10;;
73456;SDS011;61691;53.072;6.582;2023-04-03T09:09:42;13.32;;;2.28;;
73456;SDS011;61691;53.072;6.582;2023-04-03T09:12:15;13.30;;;2.35;;
73456;SDS011;61691;53.072;6.582;2023-04-03T09:17:57;12.30;;;3.35;;
73456;SDS011;61691;53.072;6.582;2023-04-03T09:20:46;9.55;;;1.90;;
73456;SDS011;61691;53.072;6.582;2023-04-03T09:26:08;12.35;;;2.50;;
73456;SDS011;61691;53.072;6.582;2023-04-03T09:28:40;10.50;;;2.53;;
73456;SDS011;61691;53.072;6.582;2023-04-03T09:31:20;9.90;;;1.98;;
73456;SDS011;61691;53.072;6.582;2023-04-03T09:33:50;7.93;;;1.80;;
73456;SDS011;61691;53.072;6.582;2023-04-03T09:36:38;8.93;;;1.85;;
73456;SDS011;61691;53.072;6.582;2023-04-03T09:39:11;10.30;;;1.80;;
73456;SDS011;61691;53.072;6.582;2023-04-03T09:41:42;8.60;;;2.08;;
73456;SDS011;61691;53.072;6.582;2023-04-03T09:44:22;10.27;;;2.07;;
73456;SDS011;61691;53.072;6.582;2023-04-03T09:46:50;6.70;;;1.80;;
73456;SDS011;61691;53.072;6.582;2023-04-03T09:49:17;10.07;;;1.70;;
73456;SDS011;61691;53.072;6.582;2023-04-03T09:51:45;10.73;;;2.05;;
73456;SDS011;61691;53.072;6.582;2023-04-03T09:54:31;7.03;;;1.55;;
73456;SDS011;61691;53.072;6.582;2023-04-03T09:57:07;9.48;;;1.60;;
73456;SDS011;61691;53.072;6.582;2023-04-03T09:59:47;7.32;;;1.75;;
73456;SDS011;61691;53.072;6.582;2023-04-03T10:02:32;3.67;;;1.40;;
73456;SDS011;61691;53.072;6.582;2023-04-03T10:05:29;6.30;;;1.40;;
73456;SDS011;61691;53.072;6.582;2023-04-03T10:08:34;8.38;;;1.50;;
73456;SDS011;61691;53.072;6.582;2023-04-03T10:13:49;7.72;;;1.70;;
73456;SDS011;61691;53.072;6.582;2023-04-03T10:16:21;6.80;;;1.70;;
73456;SDS011;61691;53.072;6.582;2023-04-03T10:18:57;9.75;;;1.63;;
73456;SDS011;61691;53.072;6.582;2023-04-03T10:26:59;6.45;;;1.65;;
73456;SDS011;61691;53.072;6.582;2023-04-03T10:29:43;9.70;;;1.70;;
73456;SDS011;61691;53.072;6.582;2023-04-03T10:32:24;7.28;;;1.50;;
73456;SDS011;61691;53.072;6.582;2023-04-03T10:34:57;6.90;;;1.55;;
73456;SDS011;61691;53.072;6.582;2023-04-03T10:37:46;9.35;;;2.10;;
73456;SDS011;61691;53.072;6.582;2023-04-03T10:40:35;8.05;;;2.28;;
73456;SDS011;61691;53.072;6.582;2023-04-03T10:43:21;7.78;;;1.65;;
73456;SDS011;61691;53.072;6.582;2023-04-03T10:54:05;7.43;;;1.67;;
73456;SDS011;61691;53.072;6.582;2023-04-03T10:56:41;8.68;;;1.55;;
73456;SDS011;61691;53.072;6.582;2023-04-03T11:01:41;7.47;;;1.50;;
73456;SDS011;61691;53.072;6.582;2023-04-03T11:04:11;8.20;;;1.60;;
73456;SDS011;61691;53.072;6.582;2023-04-03T11:06:41;5.75;;;1.40;;
73456;SDS011;61691;53.072;6.582;2023-04-03T11:09:18;4.75;;;1.40;;
73456;SDS011;61691;53.072;6.582;2023-04-03T11:11:46;7.93;;;1.83;;
73456;SDS011;61691;53.072;6.582;2023-04-03T11:14:22;7.18;;;1.65;;
73456;SDS011;61691;53.072;6.582;2023-04-03T11:17:01;5.22;;;1.42;;
73456;SDS011;61691;53.072;6.582;2023-04-03T11:19:41;10.18;;;2.05;;
73456;SDS011;61691;53.072;6.582;2023-04-03T11:22:33;8.70;;;1.85;;
73456;SDS011;61691;53.072;6.582;2023-04-03T11:27:51;6.75;;;1.65;;
73456;SDS011;61691;53.072;6.582;2023-04-03T11:30:27;7.57;;;1.70;;
73456;SDS011;61691;53.072;6.582;2023-04-03T11:35:58;10.10;;;1.75;;
73456;SDS011;61691;53.072;6.582;2023-04-03T11:38:44;5.57;;;1.55;;
73456;SDS011;61691;53.072;6.582;2023-04-03T11:41:13;7.35;;;1.63;;
73456;SDS011;61691;53.072;6.582;2023-04-03T11:43:42;11.15;;;2.55;;
73456;SDS011;61691;53.072;6.582;2023-04-03T11:46:30;6.45;;;1.52;;
73456;SDS011;61691;53.072;6.582;2023-04-03T11:58:32;6.47;;;1.60;;
73456;SDS011;61691;53.072;6.582;2023-04-03T12:13:35;7.85;;;1.95;;
73456;SDS011;61691;53.072;6.582;2023-04-03T12:18:40;10.18;;;2.22;;
73456;SDS011;61691;53.072;6.582;2023-04-03T12:26:34;5.90;;;1.55;;
73456;SDS011;61691;53.072;6.582;2023-04-03T12:29:33;10.77;;;1.90;;
73456;SDS011;61691;53.072;6.582;2023-04-03T12:46:24;11.32;;;2.75;;
73456;SDS011;61691;53.072;6.582;2023-04-03T12:49:00;7.68;;;2.03;;
73456;SDS011;61691;53.072;6.582;2023-04-03T12:51:40;10.68;;;2.03;;
73456;SDS011;61691;53.072;6.582;2023-04-03T12:54:13;5.85;;;1.70;;
73456;SDS011;61691;53.072;6.582;2023-04-03T12:56:46;11.60;;;1.80;;
73456;SDS011;61691;53.072;6.582;2023-04-03T13:01:52;10.07;;;2.13;;
73456;SDS011;61691;53.072;6.582;2023-04-03T13:04:21;11.13;;;2.60;;
73456;SDS011;61691;53.072;6.582;2023-04-03T13:06:49;8.20;;;1.80;;
73456;SDS011;61691;53.072;6.582;2023-04-03T13:09:26;13.82;;;1.90;;
73456;SDS011;61691;53.072;6.582;2023-04-03T13:14:37;7.80;;;2.00;;
73456;SDS011;61691;53.072;6.582;2023-04-03T13:17:06;6.47;;;1.70;;
73456;SDS011;61691;53.072;6.582;2023-04-03T13:19:40;9.27;;;1.83;;
73456;SDS011;61691;53.072;6.582;2023-04-03T13:22:11;10.10;;;1.90;;
73456;SDS011;61691;53.072;6.582;2023-04-03T13:24:54;11.60;;;1.95;;
73456;SDS011;61691;53.072;6.582;2023-04-03T13:27:22;10.30;;;1.92;;
73456;SDS011;61691;53.072;6.582;2023-04-03T13:29:50;4.70;;;1.42;;
73456;SDS011;61691;53.072;6.582;2023-04-03T13:32:21;7.80;;;1.88;;
73456;SDS011;61691;53.072;6.582;2023-04-03T13:34:50;10.10;;;1.70;;
73456;SDS011;61691;53.072;6.582;2023-04-03T13:37:22;7.15;;;2.00;;
73456;SDS011;61691;53.072;6.582;2023-04-03T13:42:33;8.80;;;1.85;;
73456;SDS011;61691;53.072;6.582;2023-04-03T13:50:57;5.35;;;1.50;;
73456;SDS011;61691;53.072;6.582;2023-04-03T13:53:30;7.78;;;1.80;;
73456;SDS011;61691;53.072;6.582;2023-04-03T13:58:32;11.70;;;2.05;;
73456;SDS011;61691;53.072;6.582;2023-04-03T14:01:11;11.05;;;2.10;;
73456;SDS011;61691;53.072;6.582;2023-04-03T14:03:51;8.65;;;1.80;;
73456;SDS011;61691;53.072;6.582;2023-04-03T14:06:23;9.18;;;1.95;;
73456;SDS011;61691;53.072;6.582;2023-04-03T14:08:51;7.72;;;1.73;;
73456;SDS011;61691;53.072;6.582;2023-04-03T14:11:19;7.90;;;2.03;;
73456;SDS011;61691;53.072;6.582;2023-04-03T14:13:49;10.35;;;2.00;;
73456;SDS011;61691;53.072;6.582;2023-04-03T14:16:22;7.40;;;1.60;;
73456;SDS011;61691;53.072;6.582;2023-04-03T14:18:52;8.38;;;1.95;;
73456;SDS011;61691;53.072;6.582;2023-04-03T14:21:19;10.90;;;2.00;;
73456;SDS011;61691;53.072;6.582;2023-04-03T14:23:47;9.50;;;1.70;;
73456;SDS011;61691;53.072;6.582;2023-04-03T14:26:16;9.57;;;2.08;;
73456;SDS011;61691;53.072;6.582;2023-04-03T14:28:48;7.57;;;1.90;;
73456;SDS011;61691;53.072;6.582;2023-04-03T14:31:17;12.27;;;2.13;;
73456;SDS011;61691;53.072;6.582;2023-04-03T14:33:44;9.63;;;1.77;;
73456;SDS011;61691;53.072;6.582;2023-04-03T14:36:19;7.25;;;1.60;;
73456;SDS011;61691;53.072;6.582;2023-04-03T14:38:49;8.15;;;1.80;;
73456;SDS011;61691;53.072;6.582;2023-04-03T14:41:17;10.82;;;1.88;;
73456;SDS011;61691;53.072;6.582;2023-04-03T14:43:46;6.47;;;1.75;;
73456;SDS011;61691;53.072;6.582;2023-04-03T14:46:22;9.23;;;2.08;;
73456;SDS011;61691;53.072;6.582;2023-04-03T14:49:09;9.02;;;2.05;;
73456;SDS011;61691;53.072;6.582;2023-04-03T14:51:44;5.63;;;1.60;;
73456;SDS011;61691;53.072;6.582;2023-04-03T14:54:13;5.63;;;1.58;;
73456;SDS011;61691;53.072;6.582;2023-04-03T14:56:43;10.70;;;1.85;;
73456;SDS011;61691;53.072;6.582;2023-04-03T14:59:11;6.95;;;1.60;;
73456;SDS011;61691;53.072;6.582;2023-04-03T15:01:40;5.88;;;1.60;;
73456;SDS011;61691;53.072;6.582;2023-04-03T15:04:11;8.25;;;1.80;;
73456;SDS011;61691;53.072;6.582;2023-04-03T15:06:39;10.07;;;1.90;;
73456;SDS011;61691;53.072;6.582;2023-04-03T15:09:20;5.57;;;1.58;;
73456;SDS011;61691;53.072;6.582;2023-04-03T15:11:49;8.63;;;1.83;;
73456;SDS011;61691;53.072;6.582;2023-04-03T15:14:17;5.38;;;1.42;;
73456;SDS011;61691;53.072;6.582;2023-04-03T15:17:03;10.10;;;1.65;;
73456;SDS011;61691;53.072;6.582;2023-04-03T15:19:35;8.95;;;1.80;;
73456;SDS011;61691;53.072;6.582;2023-04-03T15:22:03;5.53;;;1.42;;
73456;SDS011;61691;53.072;6.582;2023-04-03T15:24:31;6.63;;;1.58;;
73456;SDS011;61691;53.072;6.582;2023-04-03T15:26:58;5.72;;;1.85;;
73456;SDS011;61691;53.072;6.582;2023-04-03T15:29:26;7.18;;;1.95;;
73456;SDS011;61691;53.072;6.582;2023-04-03T15:31:53;7.40;;;2.00;;
73456;SDS011;61691;53.072;6.582;2023-04-03T15:34:20;7.22;;;1.70;;
73456;SDS011;61691;53.072;6.582;2023-04-03T15:36:48;5.43;;;1.60;;
73456;SDS011;61691;53.072;6.582;2023-04-03T15:41:47;6.88;;;1.60;;
73456;SDS011;61691;53.072;6.582;2023-04-03T15:44:14;7.43;;;1.90;;
73456;SDS011;61691;53.072;6.582;2023-04-03T15:46:44;11.32;;;2.10;;
73456;SDS011;61691;53.072;6.582;2023-04-03T15:49:12;9.68;;;1.90;;
73456;SDS011;61691;53.072;6.582;2023-04-03T15:51:39;11.40;;;2.28;;
73456;SDS011;61691;53.072;6.582;2023-04-03T15:54:06;8.70;;;2.10;;
73456;SDS011;61691;53.072;6.582;2023-04-03T15:56:34;5.57;;;1.58;;
73456;SDS011;61691;53.072;6.582;2023-04-03T15:59:01;9.75;;;2.25;;
73456;SDS011;61691;53.072;6.582;2023-04-03T16:01:28;9.70;;;1.95;;
73456;SDS011;61691;53.072;6.582;2023-04-03T16:03:55;10.88;;;2.08;;
73456;SDS011;61691;53.072;6.582;2023-04-03T16:06:22;9.70;;;1.90;;
73456;SDS011;61691;53.072;6.582;2023-04-03T16:08:51;8.05;;;1.70;;
73456;SDS011;61691;53.072;6.582;2023-04-03T16:11:18;7.10;;;1.80;;
73456;SDS011;61691;53.072;6.582;2023-04-03T16:13:44;7.55;;;2.00;;
73456;SDS011;61691;53.072;6.582;2023-04-03T16:16:11;7.22;;;1.58;;
73456;SDS011;61691;53.072;6.582;2023-04-03T16:18:38;6.05;;;1.77;;
73456;SDS011;61691;53.072;6.582;2023-04-03T16:21:05;8.43;;;1.73;;
73456;SDS011;61691;53.072;6.582;2023-04-03T16:23:34;8.48;;;1.85;;
73456;SDS011;61691;53.072;6.582;2023-04-03T16:26:01;8.55;;;1.67;;
73456;SDS011;61691;53.072;6.582;2023-04-03T16:28:28;5.07;;;1.40;;
73456;SDS011;61691;53.072;6.582;2023-04-03T16:30:54;5.82;;;1.67;;
73456;SDS011;61691;53.072;6.582;2023-04-03T16:33:21;8.30;;;1.70;;
73456;SDS011;61691;53.072;6.582;2023-04-03T16:35:49;7.18;;;1.80;;
73456;SDS011;61691;53.072;6.582;2023-04-03T16:38:16;6.90;;;1.80;;
73456;SDS011;61691;53.072;6.582;2023-04-03T16:40:45;10.43;;;2.20;;
73456;SDS011;61691;53.072;6.582;2023-04-03T16:43:12;7.68;;;1.60;;
73456;SDS011;61691;53.072;6.582;2023-04-03T16:45:39;5.95;;;1.45;;
73456;SDS011;61691;53.072;6.582;2023-04-03T16:48:06;6.65;;;1.40;;